Mount Laurel, NJ

2:45 PM EDT on August 28, 2015 (GMT -0400)
Valley Stream | | Change Station
CLOSE
Current Station
Personal Weather Station
Location: Moorestown, NJ
Elevation: 39 ft
Nearby Weather Stations

Elev 39 ft 39.96 °N, 74.94 °W | Updated 4 seconds ago

Partly Cloudy
Partly Cloudy
80.2 °F
Feels Like 80 °F
N
0.0
Wind Variable Wind from SSW
Gusts 0.0 mph

Today
High -- | Low -- °F
--% Chance of Precip.
Yesterday
High -- | Low -- °F
Precip. -- in
6:23 AM 7:37 PM
Waxing Gibbous, 98% visible
Pressure 30.16 in
Visibility 10.0 miles
Clouds Few 5500 ft
Heat Index 80 °F
Dew Point 56 °F
Humidity 44%
Rainfall 0.00 in
Snow Depth Not available.
UV 1.0 out of 12
Pollen 9.40 out of 12
Air Quality Not available.
Flu Activity Not available.
METAR KVAY 281754Z AUTO 36006KT 10SM FEW055 27/12 A3016 RMK AO2 SLP213 T02720122 10272 20167 58015
Pressure 30.16 in
Visibility 10.0 miles
Clouds Few 5500 ft
Heat Index 80 °F
Dew Point 56 °F
Humidity 44%
Rainfall 0.00 in
Snow Depth Not available.
UV 1.0 out of 12
Pollen 9.40 out of 12
Air Quality Not available.
Flu Activity Not available.
METAR KVAY 281754Z AUTO 36006KT 10SM FEW055 27/12 A3016 RMK AO2 SLP213 T02720122 10272 20167 58015

10-Day Weather Forecast

×

Almanac

Astronomy

Aug. 28, 2015 Rise Set
Actual Time
Civil Twilight
Nautical Twilight
Astronomical Twilight
Moon
Length of Visible Light
Length of Day
Tomorrow will be .
, % of the Moon is Illuminated

Today's Extremes

State Highs State Lows

Community

WunderPhotos

Upload Photos

1,850,453 photos uploaded!

WunderBlogs® & News

Nearby

Air Quality

  Air Quality AQ Index Pollutant
Not available.

Snow Depth

Station Depth Elevation

Earthquake Activity

City Distance Mag. Time & Date
Minimum magnitude displayed is 2.5.

Coastal Water Temperatures

Place Temperature

Stations

Nearby Weather Stations

Station Location Temp. Windchill Dew Point Humidity Wind Precip. Elev Updated Type